Time;durP1;ratioP1;P1;durP2;ratioP2;P2;SDS_P1;SDS_P2;PMS_P1;PMS_P2;Temp;Humidity;BMP_temperature;BMP_pressure;BME280_temperature;BME280_humidity;BME280_pressure;Samples;Min_cycle;Max_cycle;Signal;HPM_P1;HPM_P2
2021/01/13 00:00:58;;;;;;;12.10;6.33;;;0.90;99.90;;;;;;5051415;28;20291;-85
2021/01/13 00:03:23;;;;;;;11.93;7.13;;;0.90;99.90;;;;;;5050965;28;20129;-86
2021/01/13 00:05:49;;;;;;;11.93;7.60;;;0.90;99.90;;;;;;5035139;28;20029;-87
2021/01/13 00:08:15;;;;;;;11.43;7.07;;;0.80;99.90;;;;;;5051234;28;20033;-85
2021/01/13 00:10:42;;;;;;;11.77;6.40;;;0.80;99.90;;;;;;5052551;28;20021;-86
2021/01/13 00:13:07;;;;;;;12.57;7.27;;;0.80;99.90;;;;;;5053354;28;20057;-85
2021/01/13 00:15:34;;;;;;;13.97;8.20;;;0.80;99.90;;;;;;5055619;28;20029;-85
2021/01/13 00:18:00;;;;;;;12.57;6.83;;;0.70;99.90;;;;;;5056725;28;20093;-85
2021/01/13 00:20:25;;;;;;;12.23;7.03;;;0.70;99.90;;;;;;5065959;28;20042;-85
2021/01/13 00:22:51;;;;;;;12.30;6.70;;;0.70;99.90;;;;;;5033745;28;20056;-84
2021/01/13 00:25:17;;;;;;;12.20;7.40;;;0.60;99.90;;;;;;5034723;28;20033;-85
2021/01/13 00:27:43;;;;;;;15.20;7.63;;;0.60;99.90;;;;;;5049746;28;20022;-86
2021/01/13 00:30:09;;;;;;;13.18;8.27;;;0.60;99.90;;;;;;5034649;28;20020;-85
2021/01/13 00:32:35;;;;;;;14.00;8.70;;;0.50;99.90;;;;;;5049288;28;20034;-83
2021/01/13 00:35:01;;;;;;;14.03;7.47;;;0.50;99.90;;;;;;5047404;28;20033;-82
2021/01/13 00:37:28;;;;;;;14.93;8.53;;;0.50;99.90;;;;;;5033152;28;20548;-83
2021/01/13 00:39:54;;;;;;;15.63;9.40;;;0.50;99.90;;;;;;5052970;28;20033;-82
2021/01/13 00:42:19;;;;;;;16.00;9.37;;;0.50;99.90;;;;;;5040035;28;20074;-84
2021/01/13 00:44:45;;;;;;;16.33;9.63;;;0.40;99.90;;;;;;5032624;28;20036;-84
2021/01/13 00:47:15;;;;;;;16.00;9.03;;;0.40;99.90;;;;;;5048708;28;20100;-84
2021/01/13 00:49:40;;;;;;;;;;;0.30;99.90;;;;;;5032259;28;20061;-85
2021/01/13 00:52:09;;;;;;;17.40;9.47;;;0.40;99.90;;;;;;5033416;28;19943;-86
2021/01/13 00:54:35;;;;;;;16.93;8.80;;;0.30;99.90;;;;;;5033822;28;20058;-85
2021/01/13 00:57:02;;;;;;;16.80;9.23;;;0.30;99.90;;;;;;5049365;28;20026;-85
2021/01/13 00:59:28;;;;;;;18.47;10.57;;;0.30;99.90;;;;;;5032722;28;20021;-85
2021/01/13 01:01:54;;;;;;;14.60;8.63;;;0.30;99.90;;;;;;5031700;28;20021;-83
2021/01/13 01:04:19;;;;;;;16.43;8.83;;;0.30;99.90;;;;;;5048958;28;20036;-84
2021/01/13 01:06:49;;;;;;;14.67;8.23;;;0.30;99.90;;;;;;5047799;28;20066;-85
2021/01/13 01:09:15;;;;;;;17.10;9.43;;;0.30;99.90;;;;;;5028970;28;20022;-84
2021/01/13 01:11:41;;;;;;;14.73;8.43;;;0.20;99.90;;;;;;5046964;28;20110;-85
2021/01/13 01:14:09;;;;;;;14.87;8.90;;;0.20;99.90;;;;;;5046260;28;20378;-84
2021/01/13 01:16:37;;;;;;;15.33;9.03;;;0.20;99.90;;;;;;5032134;28;20044;-82
2021/01/13 01:19:04;;;;;;;15.33;9.23;;;0.20;99.90;;;;;;5048040;28;20044;-85
2021/01/13 01:21:30;;;;;;;19.57;10.10;;;0.10;99.90;;;;;;5033039;28;20083;-85
2021/01/13 01:23:57;;;;;;;16.10;9.43;;;0.00;99.90;;;;;;5032205;28;20057;-86
2021/01/13 01:26:23;;;;;;;16.00;8.93;;;0.00;99.90;;;;;;5034650;28;20101;-84
2021/01/13 01:28:49;;;;;;;15.50;7.87;;;0.10;99.90;;;;;;5034055;28;20057;-85
2021/01/13 01:31:15;;;;;;;16.50;8.93;;;0.10;99.90;;;;;;5049044;28;20487;-84
2021/01/13 01:33:41;;;;;;;15.77;8.57;;;0.10;99.90;;;;;;5032180;28;20108;-84
2021/01/13 01:36:07;;;;;;;15.67;8.43;;;0.10;99.90;;;;;;5033761;28;20132;-85
2021/01/13 01:38:33;;;;;;;18.10;9.13;;;0.00;99.90;;;;;;5032403;28;20465;-85
2021/01/13 01:41:06;;;;;;;16.60;8.87;;;0.00;99.90;;;;;;5048933;28;20036;-85
2021/01/13 01:43:32;;;;;;;18.30;8.90;;;-0.10;99.90;;;;;;5021283;28;20025;-85
2021/01/13 01:45:58;;;;;;;16.90;8.00;;;-0.10;99.90;;;;;;5060718;28;20089;-84
2021/01/13 01:48:37;;;;;;;14.97;8.07;;;-0.10;99.90;;;;;;5046240;28;20044;-86
2021/01/13 01:51:03;;;;;;;17.48;7.95;;;-0.10;99.90;;;;;;5036319;28;20484;-86
2021/01/13 01:53:40;;;;;;;17.37;8.40;;;-0.10;99.90;;;;;;5033580;28;20033;-85
2021/01/13 01:56:18;;;;;;;14.70;6.47;;;-0.10;99.90;;;;;;5032748;28;20087;-83
2021/01/13 01:58:49;;;;;;;16.40;7.60;;;-0.10;99.90;;;;;;5048744;28;20465;-83
2021/01/13 02:01:28;;;;;;;17.00;8.50;;;-0.10;99.90;;;;;;5028580;28;20037;-83
2021/01/13 02:04:03;;;;;;;17.15;8.52;;;-0.10;99.90;;;;;;5057913;28;20052;-84
2021/01/13 02:06:33;;;;;;;16.10;6.83;;;-0.10;99.90;;;;;;5046095;28;20037;-83
2021/01/13 02:08:59;;;;;;;12.68;6.85;;;-0.10;99.90;;;;;;5033007;28;20125;-86
2021/01/13 02:11:26;;;;;;;16.83;7.60;;;-0.10;99.90;;;;;;5049065;28;20025;-84
2021/01/13 02:13:52;;;;;;;16.77;7.83;;;-0.20;99.90;;;;;;5019056;28;20052;-85
2021/01/13 02:16:19;;;;;;;11.93;5.73;;;-0.20;99.90;;;;;;5024615;28;20045;-85
2021/01/13 02:18:47;;;;;;;14.07;7.40;;;-0.20;99.90;;;;;;5027047;28;20026;-86
2021/01/13 02:21:20;;;;;;;15.07;6.90;;;-0.20;99.90;;;;;;5032094;28;20404;-85
2021/01/13 02:24:07;;;;;;;12.97;6.47;;;-0.20;99.90;;;;;;5036216;28;20021;-85
2021/01/13 02:27:10;;;;;;;15.03;6.33;;;-0.20;99.90;;;;;;5054846;28;20081;-83
2021/01/13 02:29:49;;;;;;;11.40;5.40;;;-0.20;99.90;;;;;;5053785;28;20021;-84
2021/01/13 02:32:33;;;;;;;9.30;4.47;;;-0.30;99.90;;;;;;5052890;28;20033;-82
2021/01/13 02:35:15;;;;;;;14.47;6.47;;;-0.20;99.90;;;;;;5031609;28;20037;-83
2021/01/13 02:38:09;;;;;;;11.80;5.63;;;-0.30;99.90;;;;;;5046516;28;20025;-85
2021/01/13 02:40:37;;;;;;;12.97;5.40;;;-0.30;99.90;;;;;;5024276;28;20022;-86
2021/01/13 02:43:08;;;;;;;12.50;6.43;;;-0.30;99.90;;;;;;5024794;28;20441;-86
2021/01/13 02:45:45;;;;;;;14.20;6.47;;;-0.30;99.90;;;;;;5048140;28;20477;-85
2021/01/13 02:48:12;;;;;;;12.47;5.80;;;-0.40;99.90;;;;;;5048689;28;20033;-84
2021/01/13 02:51:01;;;;;;;15.27;7.03;;;-0.40;99.90;;;;;;5048099;28;20010;-85
2021/01/13 02:53:29;;;;;;;12.37;6.33;;;-0.40;99.90;;;;;;5049048;28;20037;-85
2021/01/13 02:56:23;;;;;;;10.53;5.10;;;-0.40;99.90;;;;;;5036634;28;20120;-85
2021/01/13 02:58:59;;;;;;;9.53;5.67;;;-0.40;99.90;;;;;;5052442;28;20037;-86
2021/01/13 03:01:29;;;;;;;10.37;5.53;;;-0.40;99.90;;;;;;5051362;28;20025;-84
2021/01/13 03:03:56;;;;;;;14.40;6.15;;;-0.40;99.90;;;;;;5034490;28;20095;-85
2021/01/13 03:06:29;;;;;;;10.30;4.77;;;-0.40;99.90;;;;;;5035132;28;20036;-84
2021/01/13 03:09:04;;;;;;;13.20;6.10;;;-0.40;99.90;;;;;;5029386;28;20033;-83
2021/01/13 03:11:30;;;;;;;15.50;6.47;;;-0.40;99.90;;;;;;5038155;28;20449;-84
2021/01/13 03:14:06;;;;;;;10.43;5.60;;;-0.50;99.90;;;;;;5024961;28;20046;-83
2021/01/13 03:16:37;;;;;;;13.47;5.03;;;-0.50;99.90;;;;;;5033630;28;20064;-84
2021/01/13 03:19:17;;;;;;;14.27;6.33;;;-0.50;99.90;;;;;;5051400;28;20385;-85
2021/01/13 03:22:08;;;;;;;12.65;6.18;;;-0.60;99.90;;;;;;5051528;28;20028;-84
2021/01/13 03:24:52;;;;;;;10.83;4.57;;;-0.60;99.90;;;;;;5035447;28;20029;-86
2021/01/13 03:27:19;;;;;;;12.40;5.53;;;-0.50;99.90;;;;;;5035038;28;20037;-85
2021/01/13 03:29:47;;;;;;;15.03;6.80;;;-0.60;99.90;;;;;;5017317;28;20083;-83
2021/01/13 03:32:17;;;;;;;13.37;5.63;;;-0.60;99.90;;;;;;5056540;28;20022;-84
2021/01/13 03:35:03;;;;;;;17.87;6.90;;;-0.60;99.90;;;;;;5054324;28;20424;-84
2021/01/13 03:37:45;;;;;;;13.87;4.53;;;-0.60;99.90;;;;;;5056471;28;20069;-86
2021/01/13 03:40:15;;;;;;;18.10;7.00;;;-0.60;99.90;;;;;;5039328;28;20033;-85
2021/01/13 03:42:50;;;;;;;13.63;6.53;;;-0.60;99.90;;;;;;5050990;28;20064;-86
2021/01/13 03:45:38;;;;;;;12.60;5.97;;;-0.60;99.90;;;;;;5051558;28;20052;-85
2021/01/13 03:48:22;;;;;;;7.10;3.67;;;-0.60;99.90;;;;;;5036492;28;20048;-85
2021/01/13 03:50:50;;;;;;;11.80;4.77;;;-0.70;99.90;;;;;;5035041;28;20021;-86
2021/01/13 03:53:16;;;;;;;14.73;6.90;;;-0.70;99.90;;;;;;5037176;28;20072;-85
2021/01/13 03:55:43;;;;;;;15.87;7.43;;;-0.70;99.90;;;;;;5051903;28;20025;-84
2021/01/13 03:58:09;;;;;;;17.43;7.40;;;-0.80;99.90;;;;;;5051729;28;20077;-85
2021/01/13 04:00:57;;;;;;;27.13;9.60;;;-0.80;99.90;;;;;;5034857;28;20420;-86
2021/01/13 04:03:26;;;;;;;13.43;6.67;;;-0.80;99.90;;;;;;5053319;28;20017;-87
2021/01/13 04:06:01;;;;;;;17.77;7.78;;;-0.90;99.90;;;;;;5054088;28;20049;-86
2021/01/13 04:08:40;;;;;;;17.97;7.87;;;-0.90;99.90;;;;;;5037391;28;20044;-87
2021/01/13 04:11:10;;;;;;;17.77;8.02;;;-0.90;99.90;;;;;;5016528;28;20026;-86
2021/01/13 04:13:36;;;;;;;17.43;7.77;;;-0.90;99.90;;;;;;5035679;28;20424;-85
2021/01/13 04:16:02;;;;;;;19.57;8.43;;;-0.90;99.90;;;;;;5036034;28;20040;-86
2021/01/13 04:18:29;;;;;;;16.77;7.57;;;-1.00;99.90;;;;;;5062577;28;20029;-85
2021/01/13 04:20:55;;;;;;;22.33;9.90;;;-0.90;99.90;;;;;;5081573;28;20044;-86
2021/01/13 04:23:21;;;;;;;20.97;8.60;;;-0.90;99.90;;;;;;5051614;28;20022;-85
2021/01/13 04:25:48;;;;;;;18.73;9.23;;;-0.90;99.90;;;;;;5044729;28;20033;-85
2021/01/13 04:28:14;;;;;;;19.13;9.53;;;-0.90;99.90;;;;;;5060374;28;20109;-85
2021/01/13 04:30:40;;;;;;;18.37;8.77;;;-0.90;99.90;;;;;;5049575;28;20041;-86
2021/01/13 04:33:07;;;;;;;18.93;7.93;;;-0.90;99.90;;;;;;5048126;28;20041;-90
2021/01/13 04:35:33;;;;;;;22.17;9.13;;;-0.90;99.90;;;;;;5067739;28;20045;-85
2021/01/13 04:37:59;;;;;;;18.90;7.90;;;-0.90;99.90;;;;;;5062372;28;20087;-83
2021/01/13 04:40:37;;;;;;;18.77;8.30;;;-0.80;99.90;;;;;;5050317;28;20017;-84
2021/01/13 04:43:04;;;;;;;21.80;8.77;;;-0.80;99.90;;;;;;5072142;28;20024;-85
2021/01/13 04:45:39;;;;;;;20.93;9.80;;;-0.80;99.90;;;;;;5054801;28;20036;-85
2021/01/13 04:48:08;;;;;;;17.20;8.30;;;-0.80;99.90;;;;;;5052875;28;20098;-85
2021/01/13 04:50:36;;;;;;;24.92;8.85;;;-0.70;99.90;;;;;;5036298;28;20041;-88
2021/01/13 04:53:13;;;;;;;16.90;8.07;;;-0.70;99.90;;;;;;5037615;28;20086;-87
2021/01/13 04:55:58;;;;;;;24.87;9.80;;;-0.70;99.90;;;;;;5050231;28;20041;-86
2021/01/13 04:58:58;;;;;;;19.20;7.93;;;-0.70;99.90;;;;;;5051630;28;20021;-85
2021/01/13 05:01:56;;;;;;;;;;;-0.70;99.90;;;;;;5071872;28;20046;-85
2021/01/13 05:04:55;;;;;;;21.97;8.73;;;-0.70;99.90;;;;;;4999800;28;19936;-86
2021/01/13 05:07:34;;;;;;;26.45;8.45;;;-0.80;99.90;;;;;;4974088;28;20061;-88
2021/01/13 05:10:11;;;;;;;20.55;8.55;;;-0.80;99.90;;;;;;4974291;28;20121;-86
2021/01/13 05:12:47;;;;;;;22.53;9.00;;;-0.80;99.90;;;;;;4969380;28;20137;-87
2021/01/13 05:15:16;;;;;;;22.53;9.27;;;-0.90;99.90;;;;;;4994001;28;20045;-90
2021/01/13 05:18:11;;;;;;;19.33;6.87;;;-0.90;99.90;;;;;;4993109;28;20049;-89
2021/01/13 05:20:42;;;;;;;23.40;8.37;;;-0.80;99.90;;;;;;4917204;29;20088;-84
2021/01/13 05:23:13;;;;;;;18.37;8.00;;;-0.80;99.90;;;;;;4896556;29;20040;-84
2021/01/13 05:25:42;;;;;;;13.90;7.33;;;-0.80;99.90;;;;;;4913915;29;20043;-79
2021/01/13 05:28:09;;;;;;;;;;;-0.70;99.90;;;;;;4910953;29;20036;-76
2021/01/13 05:30:43;;;;;;;19.10;6.83;;;-0.70;99.90;;;;;;4910845;29;19966;-78
2021/01/13 05:33:18;;;;;;;20.17;7.80;;;-0.70;99.90;;;;;;4912417;29;20048;-78
2021/01/13 05:35:55;;;;;;;21.33;9.37;;;-0.60;99.90;;;;;;4912404;29;20380;-79
2021/01/13 05:38:45;;;;;;;20.13;7.73;;;-0.60;99.90;;;;;;4912190;29;20108;-78
2021/01/13 05:41:12;;;;;;;19.83;8.70;;;-0.50;99.90;;;;;;4970273;28;20387;-76
2021/01/13 05:43:45;;;;;;;12.47;5.50;;;-0.50;99.90;;;;;;4970514;28;20108;-76
2021/01/13 05:46:13;;;;;;;18.63;7.33;;;-0.50;99.90;;;;;;4970207;28;20026;-78
2021/01/13 05:48:47;;;;;;;14.27;6.40;;;-0.50;99.90;;;;;;4968793;28;20102;-77
2021/01/13 05:51:13;;;;;;;20.67;6.33;;;-0.50;99.90;;;;;;4970542;28;20035;-77
2021/01/13 05:53:50;;;;;;;16.77;7.03;;;-0.50;99.90;;;;;;4969451;28;20490;-77
2021/01/13 05:56:17;;;;;;;21.57;8.10;;;-0.50;99.90;;;;;;4969892;28;20045;-76
2021/01/13 05:58:43;;;;;;;15.93;6.97;;;-0.40;99.90;;;;;;5030519;28;20400;-79
2021/01/13 06:01:27;;;;;;;15.67;6.53;;;-0.50;99.90;;;;;;5030101;28;20048;-78
2021/01/13 06:03:55;;;;;;;17.53;7.07;;;-0.50;99.90;;;;;;5030747;28;20026;-78
2021/01/13 06:06:25;;;;;;;20.87;7.53;;;-0.50;99.90;;;;;;5029181;28;20369;-77
2021/01/13 06:08:54;;;;;;;25.30;9.77;;;-0.50;99.90;;;;;;5034477;28;20048;-78
2021/01/13 06:11:23;;;;;;;16.47;7.17;;;-0.60;99.90;;;;;;5032764;28;20434;-78
2021/01/13 06:13:50;;;;;;;22.33;8.07;;;-0.60;99.90;;;;;;5026428;28;20030;-77
2021/01/13 06:16:17;;;;;;;19.27;7.00;;;-0.60;99.90;;;;;;5010737;28;20034;-77
2021/01/13 06:18:44;;;;;;;20.70;9.57;;;-0.60;99.90;;;;;;5023649;28;20022;-76
2021/01/13 06:21:12;;;;;;;18.13;7.63;;;-0.60;99.90;;;;;;5030547;28;20071;-77
2021/01/13 06:23:51;;;;;;;23.37;8.37;;;-0.60;99.90;;;;;;5030381;28;20021;-77
2021/01/13 06:26:19;;;;;;;19.35;7.70;;;-0.60;99.90;;;;;;5028217;28;20030;-84
2021/01/13 06:29:03;;;;;;;14.63;5.97;;;-0.60;99.90;;;;;;5047083;28;20073;-82
2021/01/13 06:31:43;;;;;;;26.23;9.57;;;-0.70;99.90;;;;;;5050859;28;20034;-82
2021/01/13 06:34:28;;;;;;;19.55;7.45;;;-0.70;99.90;;;;;;5031822;28;20378;-76
2021/01/13 06:37:09;;;;;;;23.93;9.97;;;-0.70;99.90;;;;;;5028876;28;20032;-77
2021/01/13 06:39:34;;;;;;;25.97;8.53;;;-0.70;99.90;;;;;;5034171;28;20118;-78
2021/01/13 06:42:00;;;;;;;19.80;7.33;;;-0.60;99.90;;;;;;5034728;28;20038;-77
2021/01/13 06:44:42;;;;;;;18.07;7.23;;;-0.70;99.90;;;;;;5034581;28;20022;-82
2021/01/13 06:47:07;;;;;;;19.60;8.37;;;-0.70;99.90;;;;;;5034895;28;20026;-81
2021/01/13 06:49:33;;;;;;;17.20;7.33;;;-0.70;99.90;;;;;;5041835;28;20020;-80
2021/01/13 06:51:59;;;;;;;16.73;7.47;;;-0.80;99.90;;;;;;5049898;28;20045;-81
2021/01/13 06:54:27;;;;;;;21.13;8.07;;;-0.70;99.90;;;;;;5072719;28;20032;-79
2021/01/13 06:56:54;;;;;;;22.43;8.90;;;-0.70;99.90;;;;;;5044404;28;20030;-81
2021/01/13 06:59:25;;;;;;;22.43;9.73;;;-0.70;99.90;;;;;;5035503;28;20018;-81
2021/01/13 07:01:58;;;;;;;20.70;9.30;;;-0.70;99.90;;;;;;5034422;28;20053;-80
2021/01/13 07:04:25;;;;;;;20.57;7.30;;;-0.70;99.90;;;;;;5034707;28;20057;-80
2021/01/13 07:06:58;;;;;;;11.67;4.87;;;-0.70;99.90;;;;;;5032652;28;20056;-80
2021/01/13 07:09:30;;;;;;;19.33;7.80;;;-0.70;99.90;;;;;;5031905;28;20026;-85
2021/01/13 07:11:57;;;;;;;17.73;7.33;;;-0.70;99.90;;;;;;5030747;28;20535;-81
2021/01/13 07:14:23;;;;;;;24.47;7.53;;;-0.70;99.90;;;;;;5032341;28;20049;-79
2021/01/13 07:16:49;;;;;;;21.67;8.10;;;-0.60;99.90;;;;;;5031190;28;20045;-80
2021/01/13 07:19:15;;;;;;;15.93;7.30;;;-0.60;99.90;;;;;;5032342;28;20052;-80
2021/01/13 07:21:41;;;;;;;19.43;5.80;;;-0.60;99.90;;;;;;5031071;28;20049;-80
2021/01/13 07:24:15;;;;;;;16.97;6.60;;;-0.60;99.90;;;;;;5026499;28;20489;-77
2021/01/13 07:26:43;;;;;;;18.07;7.27;;;-0.60;99.90;;;;;;5033891;28;20048;-82
2021/01/13 07:29:08;;;;;;;16.80;7.40;;;-0.60;99.90;;;;;;5031614;28;20033;-79
2021/01/13 07:31:35;;;;;;;19.53;7.37;;;-0.50;99.90;;;;;;5021987;28;20658;-79
2021/01/13 07:34:21;;;;;;;21.27;8.80;;;-0.50;99.90;;;;;;5025874;28;20071;-79
2021/01/13 07:36:51;;;;;;;24.07;9.73;;;-0.50;99.90;;;;;;5019977;28;20053;-80
2021/01/13 07:39:17;;;;;;;24.73;9.20;;;-0.50;99.90;;;;;;5027279;28;20074;-80
2021/01/13 07:42:26;;;;;;;26.23;9.97;;;-0.50;99.90;;;;;;5020474;28;20077;-79
2021/01/13 07:45:01;;;;;;;22.65;9.80;;;-0.40;99.90;;;;;;5027684;28;20165;-80
2021/01/13 07:47:30;;;;;;;20.87;7.90;;;-0.40;99.90;;;;;;5031621;28;20025;-79
2021/01/13 07:50:05;;;;;;;19.70;7.95;;;-0.30;99.90;;;;;;5030543;28;20025;-79
2021/01/13 07:52:42;;;;;;;21.87;9.50;;;-0.40;99.90;;;;;;5030399;28;20030;-79
2021/01/13 07:55:15;;;;;;;18.90;8.50;;;-0.30;99.90;;;;;;5030341;28;20045;-79
2021/01/13 07:57:46;;;;;;;21.83;9.00;;;-0.30;99.90;;;;;;5033551;28;20029;-79
2021/01/13 08:00:23;;;;;;;21.63;9.63;;;-0.30;99.90;;;;;;5029478;28;20064;-79
2021/01/13 08:02:48;;;;;;;26.13;10.77;;;-0.20;99.90;;;;;;5029064;28;20147;-80
2021/01/13 08:05:20;;;;;;;21.07;9.27;;;-0.20;99.90;;;;;;5023074;28;20112;-81
2021/01/13 08:08:08;;;;;;;19.77;9.40;;;-0.10;99.90;;;;;;5014192;28;20033;-84
2021/01/13 08:10:39;;;;;;;18.07;8.50;;;-0.10;99.90;;;;;;5031446;28;20104;-81
2021/01/13 08:13:16;;;;;;;17.70;7.60;;;-0.10;99.90;;;;;;5030054;28;20492;-82
2021/01/13 08:16:24;;;;;;;17.47;8.10;;;-0.10;99.90;;;;;;5025162;28;20156;-82
2021/01/13 08:18:56;;;;;;;17.07;8.17;;;-0.10;99.90;;;;;;5026984;28;20744;-83
2021/01/13 08:21:40;;;;;;;19.37;7.80;;;-0.10;99.90;;;;;;5036398;28;20112;-81
2021/01/13 08:24:14;;;;;;;15.17;7.60;;;-0.20;99.90;;;;;;5029017;28;20030;-81
2021/01/13 08:26:40;;;;;;;16.77;7.23;;;-0.20;99.90;;;;;;5033495;28;20022;-80
2021/01/13 08:29:16;;;;;;;15.37;6.93;;;-0.20;99.90;;;;;;5031505;28;20060;-78
2021/01/13 08:31:47;;;;;;;20.10;7.50;;;-0.10;99.90;;;;;;5030516;28;20447;-80
2021/01/13 08:34:13;;;;;;;17.13;7.00;;;-0.10;99.90;;;;;;5029888;28;20025;-79
2021/01/13 08:36:50;;;;;;;15.60;5.60;;;0.00;99.90;;;;;;5026903;28;20037;-80
2021/01/13 08:39:17;;;;;;;16.23;7.20;;;0.00;99.90;;;;;;5038480;28;20025;-90
2021/01/13 08:41:44;;;;;;;15.17;6.47;;;0.10;99.90;;;;;;5030323;28;20049;-81
2021/01/13 08:44:15;;;;;;;14.47;5.37;;;0.20;99.90;;;;;;5043272;28;20131;-81
2021/01/13 08:47:01;;;;;;;12.53;5.93;;;0.20;99.90;;;;;;5031406;28;20045;-80
2021/01/13 08:49:29;;;;;;;16.13;6.97;;;0.30;99.90;;;;;;5045497;28;20085;-81
2021/01/13 08:52:16;;;;;;;18.20;7.80;;;0.30;99.90;;;;;;5053433;28;20103;-81
2021/01/13 08:54:44;;;;;;;15.17;6.97;;;0.40;99.90;;;;;;5042597;28;20045;-82
2021/01/13 08:57:12;;;;;;;11.07;4.40;;;0.40;99.90;;;;;;5033455;28;20360;-79
2021/01/13 08:59:43;;;;;;;8.87;4.13;;;0.30;99.90;;;;;;5048302;28;20033;-82
2021/01/13 09:02:17;;;;;;;13.63;5.90;;;0.30;99.90;;;;;;5031739;28;20739;-80
2021/01/13 09:04:59;;;;;;;11.27;4.83;;;0.30;99.90;;;;;;5034987;28;20560;-84
2021/01/13 09:07:44;;;;;;;12.63;6.13;;;0.40;99.90;;;;;;5030216;28;20362;-81
2021/01/13 09:10:13;;;;;;;9.90;4.50;;;0.40;99.90;;;;;;5029409;28;20040;-81
2021/01/13 09:12:45;;;;;;;6.80;3.13;;;0.50;99.90;;;;;;5031296;28;20029;-82
2021/01/13 09:15:19;;;;;;;12.87;5.53;;;0.50;99.90;;;;;;5029426;28;20299;-84
2021/01/13 09:17:51;;;;;;;5.47;2.70;;;0.60;99.90;;;;;;5024692;28;20037;-83
2021/01/13 09:20:21;;;;;;;7.70;3.47;;;0.60;99.90;;;;;;5029520;28;20094;-83
2021/01/13 09:22:51;;;;;;;7.10;3.40;;;0.60;99.90;;;;;;5032428;28;20036;-83
2021/01/13 09:25:22;;;;;;;10.07;4.77;;;0.60;99.90;;;;;;5031733;28;20033;-82
2021/01/13 09:27:50;;;;;;;11.87;4.73;;;0.60;99.90;;;;;;5031422;28;20021;-82
2021/01/13 09:30:35;;;;;;;8.55;3.80;;;0.70;99.90;;;;;;5033478;28;20033;-83
2021/01/13 09:33:04;;;;;;;7.00;3.67;;;0.70;99.90;;;;;;5040112;28;20030;-82
2021/01/13 09:35:32;;;;;;;9.05;4.70;;;0.60;99.90;;;;;;5034329;28;20061;-84
2021/01/13 09:38:05;;;;;;;7.60;4.40;;;0.60;99.90;;;;;;5035000;28;20084;-81
2021/01/13 09:40:51;;;;;;;11.73;5.73;;;0.60;99.90;;;;;;5033161;28;20044;-81
2021/01/13 09:43:32;;;;;;;9.07;3.83;;;0.70;99.90;;;;;;5030169;28;20048;-84
2021/01/13 09:46:22;;;;;;;12.50;5.27;;;0.80;99.90;;;;;;5050160;28;20502;-88
2021/01/13 09:49:04;;;;;;;8.87;4.20;;;0.90;99.90;;;;;;5034720;28;20108;-83
2021/01/13 09:51:31;;;;;;;10.53;4.17;;;0.90;99.90;;;;;;5034490;28;20053;-82
2021/01/13 09:53:59;;;;;;;10.83;4.07;;;0.80;99.90;;;;;;5034047;28;20112;-84
2021/01/13 09:56:26;;;;;;;16.10;5.13;;;0.80;99.90;;;;;;5050340;28;20052;-83
2021/01/13 09:58:52;;;;;;;14.50;4.77;;;0.80;99.90;;;;;;5033126;28;20535;-82
2021/01/13 10:01:26;;;;;;;8.57;4.30;;;0.80;99.90;;;;;;5036489;28;20030;-83
2021/01/13 10:03:56;;;;;;;9.23;4.20;;;0.90;99.90;;;;;;5039108;28;20485;-82
2021/01/13 10:06:24;;;;;;;8.70;3.90;;;0.80;99.90;;;;;;5061524;28;20040;-85
2021/01/13 10:08:51;;;;;;;11.00;5.50;;;0.80;99.90;;;;;;5036917;28;20057;-81
2021/01/13 10:11:18;;;;;;;11.47;4.40;;;0.90;99.90;;;;;;5037381;28;20571;-82
2021/01/13 10:13:45;;;;;;;9.80;4.70;;;0.90;99.90;;;;;;5042588;28;20053;-80
2021/01/13 10:16:13;;;;;;;8.27;3.73;;;1.00;99.90;;;;;;5042670;28;20827;-82
2021/01/13 10:18:53;;;;;;;10.17;4.67;;;1.00;99.90;;;;;;5052911;28;20121;-79
2021/01/13 10:21:19;;;;;;;10.73;4.70;;;1.00;99.90;;;;;;5038377;28;20026;-83
2021/01/13 10:23:47;;;;;;;10.73;4.90;;;0.90;99.90;;;;;;5034846;28;20428;-83
2021/01/13 10:26:13;;;;;;;9.87;4.17;;;1.00;99.90;;;;;;5048787;28;20033;-81
2021/01/13 10:28:39;;;;;;;10.77;4.80;;;1.00;99.90;;;;;;5039781;28;20049;-83
2021/01/13 10:31:07;;;;;;;8.63;3.90;;;1.00;99.90;;;;;;5040950;28;20108;-84
2021/01/13 10:34:02;;;;;;;10.17;4.13;;;1.00;99.90;;;;;;5025901;28;20085;-82
2021/01/13 10:36:31;;;;;;;10.13;4.27;;;1.10;99.90;;;;;;4949122;28;20136;-84
2021/01/13 10:39:05;;;;;;;8.48;4.32;;;1.20;99.90;;;;;;4934019;29;20040;-83
2021/01/13 10:41:33;;;;;;;10.30;4.70;;;1.20;99.90;;;;;;4938508;29;20031;-81
2021/01/13 10:44:11;;;;;;;4.78;3.25;;;1.30;99.90;;;;;;4937188;29;20028;-81
2021/01/13 10:46:55;;;;;;;9.20;3.63;;;1.20;99.90;;;;;;4939290;29;20071;-82
2021/01/13 10:49:27;;;;;;;8.90;3.33;;;1.30;99.90;;;;;;4941358;29;20622;-83
2021/01/13 10:52:12;;;;;;;7.53;3.53;;;1.30;99.90;;;;;;4951255;28;20107;-82
2021/01/13 10:54:46;;;;;;;9.20;3.60;;;1.30;99.90;;;;;;4933758;28;20087;-83
2021/01/13 10:57:14;;;;;;;9.48;3.97;;;1.40;99.90;;;;;;4956771;28;20083;-84
2021/01/13 10:59:42;;;;;;;10.18;3.40;;;1.40;99.90;;;;;;4938734;29;20036;-84
2021/01/13 11:02:13;;;;;;;6.27;3.70;;;1.30;99.90;;;;;;4932650;29;20049;-83
2021/01/13 11:04:42;;;;;;;7.23;3.60;;;1.20;99.90;;;;;;4918590;29;20036;-81
2021/01/13 11:07:17;;;;;;;8.10;3.03;;;1.20;99.90;;;;;;4933833;29;20407;-82
2021/01/13 11:09:44;;;;;;;6.03;2.30;;;1.30;99.90;;;;;;4927607;29;20068;-83
2021/01/13 11:12:16;;;;;;;8.38;3.42;;;1.30;99.90;;;;;;4956653;28;20057;-82
2021/01/13 11:14:46;;;;;;;5.40;2.57;;;1.30;99.90;;;;;;5055504;28;20073;-82
2021/01/13 11:17:13;;;;;;;;;;;1.30;99.90;;;;;;5049191;28;20064;-82
2021/01/13 11:19:47;;;;;;;5.63;3.07;;;1.30;99.90;;;;;;5050268;28;19931;-82
2021/01/13 11:22:15;;;;;;;8.00;3.60;;;1.30;99.90;;;;;;5034266;28;20048;-82
2021/01/13 11:24:49;;;;;;;5.63;1.97;;;1.30;99.90;;;;;;5033134;28;20022;-82
2021/01/13 11:27:24;;;;;;;6.27;3.00;;;1.20;99.90;;;;;;5032411;28;20069;-81
2021/01/13 11:29:55;;;;;;;5.53;2.77;;;1.20;99.90;;;;;;5032766;28;20647;-80
2021/01/13 11:32:30;;;;;;;5.70;2.70;;;1.20;99.90;;;;;;5034819;28;20025;-82
2021/01/13 11:34:56;;;;;;;8.83;2.87;;;1.30;99.90;;;;;;5034406;28;20079;-81
2021/01/13 11:37:48;;;;;;;5.63;2.47;;;1.30;99.90;;;;;;5036360;28;20474;-79
2021/01/13 11:40:36;;;;;;;8.80;2.73;;;1.30;99.90;;;;;;5033962;28;20026;-80
2021/01/13 11:43:28;;;;;;;4.00;1.97;;;1.30;99.90;;;;;;5034363;28;20476;-80
2021/01/13 11:46:10;;;;;;;4.53;1.97;;;1.40;99.90;;;;;;5033394;28;20025;-80
2021/01/13 11:49:09;;;;;;;5.50;2.47;;;1.50;99.90;;;;;;5035243;28;20057;-80
2021/01/13 11:51:41;;;;;;;5.57;2.70;;;1.50;99.90;;;;;;5034866;28;20030;-82
2021/01/13 11:54:07;;;;;;;3.03;1.53;;;1.60;99.90;;;;;;5035113;28;20026;-82
2021/01/13 11:56:33;;;;;;;5.90;2.37;;;1.50;99.90;;;;;;5049239;28;20043;-83
2021/01/13 11:58:59;;;;;;;2.83;1.80;;;1.60;99.90;;;;;;5031241;28;20025;-83
2021/01/13 12:01:26;;;;;;;7.53;2.63;;;1.60;99.90;;;;;;5032184;28;20034;-82
2021/01/13 12:04:02;;;;;;;3.63;1.70;;;1.60;99.90;;;;;;5038231;28;20072;-82
2021/01/13 12:06:27;;;;;;;5.67;2.50;;;1.60;99.90;;;;;;5041386;28;20036;-81
2021/01/13 12:08:53;;;;;;;3.97;1.55;;;1.60;99.90;;;;;;5056495;28;20057;-83
2021/01/13 12:11:20;;;;;;;4.73;1.87;;;1.50;99.90;;;;;;5050374;28;20045;-80
2021/01/13 12:13:46;;;;;;;4.65;2.45;;;1.50;99.90;;;;;;5035395;28;20049;-83
2021/01/13 12:16:17;;;;;;;6.20;1.87;;;1.50;99.90;;;;;;5049972;28;20048;-82
2021/01/13 12:18:47;;;;;;;5.77;2.40;;;1.40;99.90;;;;;;5038425;28;20033;-85
2021/01/13 12:21:13;;;;;;;2.80;1.65;;;1.60;99.90;;;;;;5040469;28;20038;-83
2021/01/13 12:23:39;;;;;;;5.25;2.17;;;1.70;99.90;;;;;;5034415;28;20037;-84
2021/01/13 12:26:14;;;;;;;6.67;2.53;;;1.80;99.90;;;;;;5038663;28;20018;-87
2021/01/13 12:28:42;;;;;;;5.75;2.22;;;1.80;99.90;;;;;;5038396;28;20476;-81
2021/01/13 12:31:08;;;;;;;3.20;1.80;;;1.90;99.90;;;;;;5034453;28;20049;-83
2021/01/13 12:33:38;;;;;;;4.72;2.22;;;1.90;99.90;;;;;;5051265;28;20448;-82
2021/01/13 12:36:25;;;;;;;2.13;1.38;;;2.00;99.90;;;;;;5044461;28;20051;-81
2021/01/13 12:38:53;;;;;;;4.28;1.40;;;2.00;99.90;;;;;;5033610;28;20029;-82
2021/01/13 12:41:24;;;;;;;2.90;1.25;;;2.00;99.90;;;;;;5040555;28;20037;-81
2021/01/13 12:43:51;;;;;;;3.65;1.67;;;1.80;99.90;;;;;;5045031;28;20021;-79
2021/01/13 12:46:35;;;;;;;5.20;1.90;;;1.90;99.90;;;;;;5035871;28;20439;-82
2021/01/13 12:49:02;;;;;;;4.05;1.90;;;1.80;99.90;;;;;;5034757;28;20026;-80
2021/01/13 12:51:29;;;;;;;5.20;1.73;;;1.80;99.90;;;;;;5035710;28;20021;-82
2021/01/13 12:54:02;;;;;;;6.07;2.50;;;1.80;99.90;;;;;;5050822;28;20048;-80
2021/01/13 12:56:36;;;;;;;4.15;2.15;;;1.70;99.90;;;;;;5037922;28;20172;-82
2021/01/13 12:59:03;;;;;;;4.75;1.60;;;1.90;99.90;;;;;;5033879;28;20025;-81
2021/01/13 13:01:38;;;;;;;4.50;1.63;;;2.00;99.90;;;;;;5025774;28;20021;-81
2021/01/13 13:04:04;;;;;;;4.07;1.58;;;1.80;99.90;;;;;;5033511;28;20088;-80
2021/01/13 13:06:32;;;;;;;3.15;1.60;;;1.90;99.90;;;;;;5035043;28;20040;-80
2021/01/13 13:09:03;;;;;;;7.45;2.25;;;2.00;99.90;;;;;;5052436;28;20017;-81
2021/01/13 13:11:29;;;;;;;4.63;1.48;;;1.90;99.90;;;;;;5047466;28;20033;-79